KATY/ATY METAR and TAF weather

Enter ICAO airport designator
Station Type Date Time Source
KATY METAR 2019/08/24 19:53 UTC NOAA

KATY 241953Z AUTO 15017G25KT 10SM SCT027 24/17 A3004 RMK AO2 PK WND 15027/1900 SLP164 T02390172


Station Type Date Time Source
KATY Decoded METAR 2019/08/24 19:53 UTC NOAA

Station name not available
Aug 24, 2019 - 03:53 PM EDT / 2019.08.24 1953 UTC
Wind: from the SSE (150 degrees) at 20 MPH (17 KT) gusting to 29 MPH (25 KT):0
Visibility: 10 mile(s):0
Sky conditions: partly cloudy
Temperature: 75.0 F (23.9 C)
Dew Point: 63.0 F (17.2 C)
Relative Humidity: 66%
Pressure (altimeter): 30.04 in. Hg (1017 hPa)
ob: KATY 241953Z AUTO 15017G25KT 10SM SCT027 24/17 A3004 RMK AO2 PK WND 15027/1900 SLP164 T02390172
cycle: 20

Station Type Date Time Source
KATY TAF 2019/08/24 18:42 UTC NOAA

TAF KATY 241738Z 2418/2518 16018G27KT P6SM FEW030 SCT250
FM250200 15014KT P6SM SCT070
FM251000 16014G20KT P6SM VCSH SCT015 BKN050
FM251200 16013KT P6SM OVC010

Example: see airport list